sensor_id;sensor_type;location;lat;lon;timestamp;P1;durP1;ratioP1;P2;durP2;ratioP2
59474;SDS011;45288;51.136;16.928;2023-03-03T00:01:04;128.50;;;44.73;;
59474;SDS011;45288;51.136;16.928;2023-03-03T00:03:30;128.00;;;45.90;;
59474;SDS011;45288;51.136;16.928;2023-03-03T00:05:56;120.35;;;41.95;;
59474;SDS011;45288;51.136;16.928;2023-03-03T00:08:22;122.63;;;42.63;;
59474;SDS011;45288;51.136;16.928;2023-03-03T00:10:47;122.50;;;40.25;;
59474;SDS011;45288;51.136;16.928;2023-03-03T00:13:21;116.67;;;38.00;;
59474;SDS011;45288;51.136;16.928;2023-03-03T00:15:46;128.13;;;39.28;;
59474;SDS011;45288;51.136;16.928;2023-03-03T00:18:29;113.30;;;37.20;;
59474;SDS011;45288;51.136;16.928;2023-03-03T00:20:56;112.17;;;37.63;;
59474;SDS011;45288;51.136;16.928;2023-03-03T00:23:25;117.53;;;37.33;;
59474;SDS011;45288;51.136;16.928;2023-03-03T00:25:53;111.00;;;36.15;;
59474;SDS011;45288;51.136;16.928;2023-03-03T00:28:22;129.05;;;38.20;;
59474;SDS011;45288;51.136;16.928;2023-03-03T00:30:50;96.95;;;36.35;;
59474;SDS011;45288;51.136;16.928;2023-03-03T00:33:22;106.78;;;36.35;;
59474;SDS011;45288;51.136;16.928;2023-03-03T00:35:52;98.40;;;38.05;;
59474;SDS011;45288;51.136;16.928;2023-03-03T00:38:18;115.47;;;38.63;;
59474;SDS011;45288;51.136;16.928;2023-03-03T00:40:43;142.52;;;39.88;;
59474;SDS011;45288;51.136;16.928;2023-03-03T00:43:22;135.18;;;37.92;;
59474;SDS011;45288;51.136;16.928;2023-03-03T00:45:49;107.47;;;37.65;;
59474;SDS011;45288;51.136;16.928;2023-03-03T00:48:18;123.30;;;39.28;;
59474;SDS011;45288;51.136;16.928;2023-03-03T00:50:45;110.90;;;39.03;;
59474;SDS011;45288;51.136;16.928;2023-03-03T00:53:12;116.28;;;38.20;;
59474;SDS011;45288;51.136;16.928;2023-03-03T00:55:38;136.77;;;38.10;;
59474;SDS011;45288;51.136;16.928;2023-03-03T00:58:05;99.47;;;37.83;;
59474;SDS011;45288;51.136;16.928;2023-03-03T01:00:35;106.88;;;38.05;;
59474;SDS011;45288;51.136;16.928;2023-03-03T01:03:07;134.73;;;38.55;;
59474;SDS011;45288;51.136;16.928;2023-03-03T01:05:34;106.63;;;36.80;;
59474;SDS011;45288;51.136;16.928;2023-03-03T01:07:59;117.77;;;37.10;;
59474;SDS011;45288;51.136;16.928;2023-03-03T01:10:26;116.17;;;37.73;;
59474;SDS011;45288;51.136;16.928;2023-03-03T01:12:52;117.10;;;37.78;;
59474;SDS011;45288;51.136;16.928;2023-03-03T01:15:19;120.72;;;36.63;;
59474;SDS011;45288;51.136;16.928;2023-03-03T01:17:45;108.28;;;36.90;;
59474;SDS011;45288;51.136;16.928;2023-03-03T01:20:12;112.22;;;37.63;;
59474;SDS011;45288;51.136;16.928;2023-03-03T01:22:38;122.60;;;38.28;;
59474;SDS011;45288;51.136;16.928;2023-03-03T01:25:04;112.38;;;36.45;;
59474;SDS011;45288;51.136;16.928;2023-03-03T01:27:30;104.70;;;37.60;;
59474;SDS011;45288;51.136;16.928;2023-03-03T01:29:55;114.90;;;38.40;;
59474;SDS011;45288;51.136;16.928;2023-03-03T01:32:22;98.18;;;37.55;;
59474;SDS011;45288;51.136;16.928;2023-03-03T01:34:48;90.07;;;35.23;;
59474;SDS011;45288;51.136;16.928;2023-03-03T01:37:13;95.40;;;36.10;;
59474;SDS011;45288;51.136;16.928;2023-03-03T01:39:39;99.75;;;35.63;;
59474;SDS011;45288;51.136;16.928;2023-03-03T01:42:04;95.17;;;36.67;;
59474;SDS011;45288;51.136;16.928;2023-03-03T01:44:30;89.85;;;36.17;;
59474;SDS011;45288;51.136;16.928;2023-03-03T01:46:58;94.30;;;35.90;;
59474;SDS011;45288;51.136;16.928;2023-03-03T01:49:30;98.13;;;37.85;;
59474;SDS011;45288;51.136;16.928;2023-03-03T01:51:59;89.50;;;36.47;;
59474;SDS011;45288;51.136;16.928;2023-03-03T01:54:29;95.00;;;35.70;;
59474;SDS011;45288;51.136;16.928;2023-03-03T01:57:02;86.78;;;34.97;;
59474;SDS011;45288;51.136;16.928;2023-03-03T01:59:30;90.20;;;35.35;;
59474;SDS011;45288;51.136;16.928;2023-03-03T02:01:58;85.95;;;36.70;;
59474;SDS011;45288;51.136;16.928;2023-03-03T02:04:23;84.90;;;34.33;;
59474;SDS011;45288;51.136;16.928;2023-03-03T02:06:55;86.03;;;33.58;;
59474;SDS011;45288;51.136;16.928;2023-03-03T02:09:32;89.15;;;35.97;;
59474;SDS011;45288;51.136;16.928;2023-03-03T02:12:02;82.47;;;34.60;;
59474;SDS011;45288;51.136;16.928;2023-03-03T02:14:29;83.90;;;35.83;;
59474;SDS011;45288;51.136;16.928;2023-03-03T02:16:55;79.07;;;34.17;;
59474;SDS011;45288;51.136;16.928;2023-03-03T02:21:47;77.93;;;33.67;;
59474;SDS011;45288;51.136;16.928;2023-03-03T02:27:11;84.68;;;35.60;;
59474;SDS011;45288;51.136;16.928;2023-03-03T02:29:40;85.50;;;34.67;;
59474;SDS011;45288;51.136;16.928;2023-03-03T02:32:06;90.75;;;36.40;;
59474;SDS011;45288;51.136;16.928;2023-03-03T02:34:42;88.13;;;37.20;;
59474;SDS011;45288;51.136;16.928;2023-03-03T02:37:08;86.93;;;35.78;;
59474;SDS011;45288;51.136;16.928;2023-03-03T02:39:35;84.38;;;34.60;;
59474;SDS011;45288;51.136;16.928;2023-03-03T02:42:02;80.00;;;35.20;;
59474;SDS011;45288;51.136;16.928;2023-03-03T02:44:39;91.13;;;36.45;;
59474;SDS011;45288;51.136;16.928;2023-03-03T02:47:06;82.87;;;34.80;;
59474;SDS011;45288;51.136;16.928;2023-03-03T02:49:32;94.90;;;36.00;;
59474;SDS011;45288;51.136;16.928;2023-03-03T02:51:59;83.18;;;34.72;;
59474;SDS011;45288;51.136;16.928;2023-03-03T02:54:26;86.38;;;36.88;;
59474;SDS011;45288;51.136;16.928;2023-03-03T02:56:52;83.60;;;34.00;;
59474;SDS011;45288;51.136;16.928;2023-03-03T02:59:19;79.30;;;33.80;;
59474;SDS011;45288;51.136;16.928;2023-03-03T03:01:47;87.82;;;34.50;;
59474;SDS011;45288;51.136;16.928;2023-03-03T03:04:17;92.67;;;34.67;;
59474;SDS011;45288;51.136;16.928;2023-03-03T03:06:46;79.78;;;32.95;;
59474;SDS011;45288;51.136;16.928;2023-03-03T03:09:13;79.18;;;32.63;;
59474;SDS011;45288;51.136;16.928;2023-03-03T03:11:39;86.00;;;33.85;;
59474;SDS011;45288;51.136;16.928;2023-03-03T03:14:06;83.05;;;32.58;;
59474;SDS011;45288;51.136;16.928;2023-03-03T03:16:33;86.28;;;33.15;;
59474;SDS011;45288;51.136;16.928;2023-03-03T03:18:59;90.82;;;34.70;;
59474;SDS011;45288;51.136;16.928;2023-03-03T03:21:26;83.35;;;34.90;;
59474;SDS011;45288;51.136;16.928;2023-03-03T03:23:52;88.03;;;34.60;;
59474;SDS011;45288;51.136;16.928;2023-03-03T03:26:19;95.00;;;35.77;;
59474;SDS011;45288;51.136;16.928;2023-03-03T03:28:47;87.63;;;36.17;;
59474;SDS011;45288;51.136;16.928;2023-03-03T03:31:13;91.88;;;35.33;;
59474;SDS011;45288;51.136;16.928;2023-03-03T03:33:39;92.95;;;36.97;;
59474;SDS011;45288;51.136;16.928;2023-03-03T03:36:06;92.70;;;35.97;;
59474;SDS011;45288;51.136;16.928;2023-03-03T03:38:33;96.35;;;39.03;;
59474;SDS011;45288;51.136;16.928;2023-03-03T03:40:59;98.93;;;37.00;;
59474;SDS011;45288;51.136;16.928;2023-03-03T03:43:25;93.38;;;36.58;;
59474;SDS011;45288;51.136;16.928;2023-03-03T03:45:51;94.95;;;37.63;;
59474;SDS011;45288;51.136;16.928;2023-03-03T03:48:17;88.77;;;34.50;;
59474;SDS011;45288;51.136;16.928;2023-03-03T03:50:46;91.80;;;34.88;;
59474;SDS011;45288;51.136;16.928;2023-03-03T03:53:11;88.68;;;34.40;;
59474;SDS011;45288;51.136;16.928;2023-03-03T03:55:37;87.85;;;33.63;;
59474;SDS011;45288;51.136;16.928;2023-03-03T03:58:03;86.90;;;32.57;;
59474;SDS011;45288;51.136;16.928;2023-03-03T04:00:29;99.72;;;35.40;;
59474;SDS011;45288;51.136;16.928;2023-03-03T04:02:58;98.88;;;36.90;;
59474;SDS011;45288;51.136;16.928;2023-03-03T04:05:24;94.10;;;36.17;;
59474;SDS011;45288;51.136;16.928;2023-03-03T04:07:50;90.83;;;35.63;;
59474;SDS011;45288;51.136;16.928;2023-03-03T04:10:17;85.70;;;35.22;;
59474;SDS011;45288;51.136;16.928;2023-03-03T04:12:43;79.57;;;32.28;;
59474;SDS011;45288;51.136;16.928;2023-03-03T04:15:12;69.27;;;28.03;;
59474;SDS011;45288;51.136;16.928;2023-03-03T04:17:40;66.47;;;28.85;;
59474;SDS011;45288;51.136;16.928;2023-03-03T04:20:07;65.05;;;27.70;;
59474;SDS011;45288;51.136;16.928;2023-03-03T04:22:33;69.30;;;27.70;;
59474;SDS011;45288;51.136;16.928;2023-03-03T04:25:00;64.32;;;26.00;;
59474;SDS011;45288;51.136;16.928;2023-03-03T04:27:31;59.42;;;25.33;;
59474;SDS011;45288;51.136;16.928;2023-03-03T04:29:57;52.70;;;23.08;;
59474;SDS011;45288;51.136;16.928;2023-03-03T04:32:23;67.45;;;26.02;;
59474;SDS011;45288;51.136;16.928;2023-03-03T04:34:49;64.00;;;25.17;;
59474;SDS011;45288;51.136;16.928;2023-03-03T04:37:14;62.70;;;24.67;;
59474;SDS011;45288;51.136;16.928;2023-03-03T04:39:40;61.03;;;24.38;;
59474;SDS011;45288;51.136;16.928;2023-03-03T04:42:05;62.17;;;25.80;;
59474;SDS011;45288;51.136;16.928;2023-03-03T04:44:31;61.77;;;23.77;;
59474;SDS011;45288;51.136;16.928;2023-03-03T04:46:57;53.23;;;22.63;;
59474;SDS011;45288;51.136;16.928;2023-03-03T04:49:23;57.75;;;22.55;;
59474;SDS011;45288;51.136;16.928;2023-03-03T04:51:49;54.28;;;21.02;;
59474;SDS011;45288;51.136;16.928;2023-03-03T04:54:15;56.03;;;22.73;;
59474;SDS011;45288;51.136;16.928;2023-03-03T04:56:41;61.25;;;23.60;;
59474;SDS011;45288;51.136;16.928;2023-03-03T04:59:07;56.70;;;22.40;;
59474;SDS011;45288;51.136;16.928;2023-03-03T05:01:33;56.67;;;21.75;;
59474;SDS011;45288;51.136;16.928;2023-03-03T05:03:59;52.25;;;20.45;;
59474;SDS011;45288;51.136;16.928;2023-03-03T05:06:25;49.30;;;18.27;;
59474;SDS011;45288;51.136;16.928;2023-03-03T05:08:51;48.22;;;18.73;;
59474;SDS011;45288;51.136;16.928;2023-03-03T05:11:16;48.47;;;18.70;;
59474;SDS011;45288;51.136;16.928;2023-03-03T05:13:42;46.13;;;17.63;;
59474;SDS011;45288;51.136;16.928;2023-03-03T05:16:08;44.65;;;17.45;;
59474;SDS011;45288;51.136;16.928;2023-03-03T05:18:33;47.93;;;19.00;;
59474;SDS011;45288;51.136;16.928;2023-03-03T05:20:59;42.85;;;18.10;;
59474;SDS011;45288;51.136;16.928;2023-03-03T05:23:24;49.83;;;19.90;;
59474;SDS011;45288;51.136;16.928;2023-03-03T05:25:50;52.57;;;20.33;;
59474;SDS011;45288;51.136;16.928;2023-03-03T05:28:16;50.63;;;20.00;;
59474;SDS011;45288;51.136;16.928;2023-03-03T05:30:41;45.83;;;18.70;;
59474;SDS011;45288;51.136;16.928;2023-03-03T05:33:07;48.63;;;19.85;;
59474;SDS011;45288;51.136;16.928;2023-03-03T05:35:34;48.45;;;19.05;;
59474;SDS011;45288;51.136;16.928;2023-03-03T05:38:00;47.70;;;19.48;;
59474;SDS011;45288;51.136;16.928;2023-03-03T05:40:26;51.70;;;20.00;;
59474;SDS011;45288;51.136;16.928;2023-03-03T05:42:51;47.33;;;19.73;;
59474;SDS011;45288;51.136;16.928;2023-03-03T05:45:18;48.80;;;19.70;;
59474;SDS011;45288;51.136;16.928;2023-03-03T05:47:52;52.38;;;20.65;;
59474;SDS011;45288;51.136;16.928;2023-03-03T05:50:18;45.78;;;18.98;;
59474;SDS011;45288;51.136;16.928;2023-03-03T05:52:46;43.92;;;18.52;;
59474;SDS011;45288;51.136;16.928;2023-03-03T05:55:12;41.50;;;17.30;;
59474;SDS011;45288;51.136;16.928;2023-03-03T05:57:37;45.03;;;17.92;;
59474;SDS011;45288;51.136;16.928;2023-03-03T06:00:03;38.23;;;15.50;;
59474;SDS011;45288;51.136;16.928;2023-03-03T06:02:38;38.45;;;15.43;;
59474;SDS011;45288;51.136;16.928;2023-03-03T06:05:03;37.63;;;15.15;;
59474;SDS011;45288;51.136;16.928;2023-03-03T06:07:29;40.78;;;16.40;;
59474;SDS011;45288;51.136;16.928;2023-03-03T06:09:55;40.07;;;16.73;;
59474;SDS011;45288;51.136;16.928;2023-03-03T06:12:20;42.42;;;17.75;;
59474;SDS011;45288;51.136;16.928;2023-03-03T06:14:46;42.40;;;17.50;;
59474;SDS011;45288;51.136;16.928;2023-03-03T06:17:12;44.13;;;17.67;;
59474;SDS011;45288;51.136;16.928;2023-03-03T06:19:38;44.00;;;18.27;;
59474;SDS011;45288;51.136;16.928;2023-03-03T06:22:03;38.35;;;15.30;;
59474;SDS011;45288;51.136;16.928;2023-03-03T06:24:29;42.80;;;17.17;;
59474;SDS011;45288;51.136;16.928;2023-03-03T06:26:56;40.45;;;17.35;;
59474;SDS011;45288;51.136;16.928;2023-03-03T06:29:22;40.55;;;16.40;;
59474;SDS011;45288;51.136;16.928;2023-03-03T06:31:48;43.08;;;17.40;;
59474;SDS011;45288;51.136;16.928;2023-03-03T06:34:14;37.93;;;15.20;;
59474;SDS011;45288;51.136;16.928;2023-03-03T06:36:39;40.95;;;16.92;;
59474;SDS011;45288;51.136;16.928;2023-03-03T06:39:05;46.28;;;17.90;;
59474;SDS011;45288;51.136;16.928;2023-03-03T06:41:31;43.30;;;16.23;;
59474;SDS011;45288;51.136;16.928;2023-03-03T06:43:57;37.10;;;15.90;;
59474;SDS011;45288;51.136;16.928;2023-03-03T06:46:24;39.42;;;15.30;;
59474;SDS011;45288;51.136;16.928;2023-03-03T06:48:50;39.92;;;15.60;;
59474;SDS011;45288;51.136;16.928;2023-03-03T06:51:19;40.57;;;15.60;;
59474;SDS011;45288;51.136;16.928;2023-03-03T06:53:47;47.20;;;16.77;;
59474;SDS011;45288;51.136;16.928;2023-03-03T06:56:13;49.53;;;18.58;;
59474;SDS011;45288;51.136;16.928;2023-03-03T06:58:39;50.20;;;17.98;;
59474;SDS011;45288;51.136;16.928;2023-03-03T07:01:04;49.45;;;17.65;;
59474;SDS011;45288;51.136;16.928;2023-03-03T07:03:37;47.33;;;17.85;;
59474;SDS011;45288;51.136;16.928;2023-03-03T07:06:07;49.03;;;17.90;;
59474;SDS011;45288;51.136;16.928;2023-03-03T07:08:33;55.50;;;19.63;;
59474;SDS011;45288;51.136;16.928;2023-03-03T07:11:06;52.08;;;18.25;;
59474;SDS011;45288;51.136;16.928;2023-03-03T07:13:32;58.80;;;19.83;;
59474;SDS011;45288;51.136;16.928;2023-03-03T07:16:00;58.90;;;20.10;;
59474;SDS011;45288;51.136;16.928;2023-03-03T07:20:57;58.92;;;20.05;;
59474;SDS011;45288;51.136;16.928;2023-03-03T07:23:24;59.70;;;19.92;;
59474;SDS011;45288;51.136;16.928;2023-03-03T07:25:50;54.42;;;17.42;;
59474;SDS011;45288;51.136;16.928;2023-03-03T07:30:45;55.17;;;19.27;;
59474;SDS011;45288;51.136;16.928;2023-03-03T07:35:55;51.65;;;18.38;;
59474;SDS011;45288;51.136;16.928;2023-03-03T07:38:36;49.00;;;17.80;;
59474;SDS011;45288;51.136;16.928;2023-03-03T07:41:04;49.05;;;17.35;;
59474;SDS011;45288;51.136;16.928;2023-03-03T07:45:57;43.10;;;16.60;;
59474;SDS011;45288;51.136;16.928;2023-03-03T07:50:58;42.00;;;16.70;;
59474;SDS011;45288;51.136;16.928;2023-03-03T07:53:30;45.97;;;17.20;;
59474;SDS011;45288;51.136;16.928;2023-03-03T07:55:59;42.55;;;16.88;;
59474;SDS011;45288;51.136;16.928;2023-03-03T07:58:38;44.57;;;17.53;;
59474;SDS011;45288;51.136;16.928;2023-03-03T08:03:49;39.65;;;16.08;;
59474;SDS011;45288;51.136;16.928;2023-03-03T08:08:47;41.15;;;16.67;;
59474;SDS011;45288;51.136;16.928;2023-03-03T08:11:13;37.15;;;14.95;;
59474;SDS011;45288;51.136;16.928;2023-03-03T08:13:39;37.37;;;15.07;;
59474;SDS011;45288;51.136;16.928;2023-03-03T08:23:41;47.13;;;19.45;;
59474;SDS011;45288;51.136;16.928;2023-03-03T08:26:07;43.92;;;17.83;;
59474;SDS011;45288;51.136;16.928;2023-03-03T08:28:33;46.45;;;17.45;;
59474;SDS011;45288;51.136;16.928;2023-03-03T08:30:58;41.63;;;17.10;;
59474;SDS011;45288;51.136;16.928;2023-03-03T08:33:24;44.20;;;18.25;;
59474;SDS011;45288;51.136;16.928;2023-03-03T08:35:50;44.47;;;17.60;;
59474;SDS011;45288;51.136;16.928;2023-03-03T08:38:17;43.58;;;17.33;;
59474;SDS011;45288;51.136;16.928;2023-03-03T08:40:43;46.13;;;18.45;;
59474;SDS011;45288;51.136;16.928;2023-03-03T08:43:09;45.22;;;18.58;;
59474;SDS011;45288;51.136;16.928;2023-03-03T08:45:35;49.40;;;18.27;;
59474;SDS011;45288;51.136;16.928;2023-03-03T08:48:00;43.92;;;17.67;;
59474;SDS011;45288;51.136;16.928;2023-03-03T08:50:27;49.85;;;19.52;;
59474;SDS011;45288;51.136;16.928;2023-03-03T08:52:53;46.60;;;19.20;;
59474;SDS011;45288;51.136;16.928;2023-03-03T08:55:18;47.10;;;18.20;;
59474;SDS011;45288;51.136;16.928;2023-03-03T08:57:44;48.57;;;19.07;;
59474;SDS011;45288;51.136;16.928;2023-03-03T09:00:10;50.65;;;19.38;;
59474;SDS011;45288;51.136;16.928;2023-03-03T09:02:37;54.28;;;19.92;;
59474;SDS011;45288;51.136;16.928;2023-03-03T09:05:02;44.85;;;18.05;;
59474;SDS011;45288;51.136;16.928;2023-03-03T09:07:28;54.97;;;20.25;;
59474;SDS011;45288;51.136;16.928;2023-03-03T09:09:54;51.27;;;19.57;;
59474;SDS011;45288;51.136;16.928;2023-03-03T09:12:23;45.45;;;18.20;;
59474;SDS011;45288;51.136;16.928;2023-03-03T09:14:50;48.47;;;19.23;;
59474;SDS011;45288;51.136;16.928;2023-03-03T09:17:28;48.47;;;18.98;;
59474;SDS011;45288;51.136;16.928;2023-03-03T09:19:57;49.22;;;19.25;;
59474;SDS011;45288;51.136;16.928;2023-03-03T09:22:24;45.65;;;19.05;;
59474;SDS011;45288;51.136;16.928;2023-03-03T09:24:55;50.63;;;20.08;;
59474;SDS011;45288;51.136;16.928;2023-03-03T09:27:28;46.78;;;18.90;;
59474;SDS011;45288;51.136;16.928;2023-03-03T09:29:54;44.63;;;18.55;;
59474;SDS011;45288;51.136;16.928;2023-03-03T09:32:23;45.13;;;18.50;;
59474;SDS011;45288;51.136;16.928;2023-03-03T09:34:51;47.90;;;19.02;;
59474;SDS011;45288;51.136;16.928;2023-03-03T09:39:47;45.80;;;18.20;;
59474;SDS011;45288;51.136;16.928;2023-03-03T09:42:19;44.72;;;18.13;;
59474;SDS011;45288;51.136;16.928;2023-03-03T09:55:40;46.22;;;18.02;;
59474;SDS011;45288;51.136;16.928;2023-03-03T10:09:01;47.85;;;18.73;;
59474;SDS011;45288;51.136;16.928;2023-03-03T10:19:35;49.78;;;20.05;;
59474;SDS011;45288;51.136;16.928;2023-03-03T10:22:18;47.80;;;19.30;;
59474;SDS011;45288;51.136;16.928;2023-03-03T10:32:45;42.13;;;18.33;;
59474;SDS011;45288;51.136;16.928;2023-03-03T10:35:32;41.53;;;18.73;;
59474;SDS011;45288;51.136;16.928;2023-03-03T10:38:43;48.08;;;19.10;;
59474;SDS011;45288;51.136;16.928;2023-03-03T10:43:36;44.38;;;18.63;;
59474;SDS011;45288;51.136;16.928;2023-03-03T10:53:44;50.13;;;18.48;;
59474;SDS011;45288;51.136;16.928;2023-03-03T11:01:51;46.97;;;18.13;;
59474;SDS011;45288;51.136;16.928;2023-03-03T11:04:29;42.08;;;17.23;;
59474;SDS011;45288;51.136;16.928;2023-03-03T11:07:08;39.78;;;15.90;;
59474;SDS011;45288;51.136;16.928;2023-03-03T11:09:42;43.72;;;17.63;;
59474;SDS011;45288;51.136;16.928;2023-03-03T11:14:42;44.83;;;17.92;;
59474;SDS011;45288;51.136;16.928;2023-03-03T11:20:00;46.58;;;19.05;;
59474;SDS011;45288;51.136;16.928;2023-03-03T11:27:35;44.08;;;16.52;;
59474;SDS011;45288;51.136;16.928;2023-03-03T11:37:59;38.50;;;14.60;;
59474;SDS011;45288;51.136;16.928;2023-03-03T11:40:49;38.05;;;14.90;;
59474;SDS011;45288;51.136;16.928;2023-03-03T11:43:48;37.13;;;15.30;;
59474;SDS011;45288;51.136;16.928;2023-03-03T11:46:10;38.03;;;15.38;;
59474;SDS011;45288;51.136;16.928;2023-03-03T11:53:53;41.03;;;16.35;;
59474;SDS011;45288;51.136;16.928;2023-03-03T11:56:39;43.67;;;16.15;;
59474;SDS011;45288;51.136;16.928;2023-03-03T12:01:44;47.00;;;16.63;;
59474;SDS011;45288;51.136;16.928;2023-03-03T12:04:31;46.10;;;17.42;;
59474;SDS011;45288;51.136;16.928;2023-03-03T12:12:28;42.42;;;15.63;;
59474;SDS011;45288;51.136;16.928;2023-03-03T12:27:16;42.17;;;15.90;;
59474;SDS011;45288;51.136;16.928;2023-03-03T12:37:54;40.17;;;15.40;;
59474;SDS011;45288;51.136;16.928;2023-03-03T12:40:25;36.92;;;13.55;;
59474;SDS011;45288;51.136;16.928;2023-03-03T12:48:27;43.65;;;15.52;;
59474;SDS011;45288;51.136;16.928;2023-03-03T12:55:52;44.20;;;15.20;;
59474;SDS011;45288;51.136;16.928;2023-03-03T13:11:41;48.22;;;16.20;;
59474;SDS011;45288;51.136;16.928;2023-03-03T13:17:08;54.00;;;17.50;;
59474;SDS011;45288;51.136;16.928;2023-03-03T13:19:43;48.97;;;16.67;;
59474;SDS011;45288;51.136;16.928;2023-03-03T13:22:12;41.10;;;14.90;;
59474;SDS011;45288;51.136;16.928;2023-03-03T13:24:44;48.72;;;16.20;;
59474;SDS011;45288;51.136;16.928;2023-03-03T13:27:15;47.92;;;15.75;;
59474;SDS011;45288;51.136;16.928;2023-03-03T13:30:03;52.72;;;17.45;;
59474;SDS011;45288;51.136;16.928;2023-03-03T13:37:43;53.00;;;18.67;;
59474;SDS011;45288;51.136;16.928;2023-03-03T13:42:44;51.63;;;18.17;;
59474;SDS011;45288;51.136;16.928;2023-03-03T13:45:21;47.83;;;18.17;;
59474;SDS011;45288;51.136;16.928;2023-03-03T13:47:59;45.73;;;16.80;;
59474;SDS011;45288;51.136;16.928;2023-03-03T13:50:35;40.30;;;15.43;;
59474;SDS011;45288;51.136;16.928;2023-03-03T13:53:28;40.70;;;15.80;;
59474;SDS011;45288;51.136;16.928;2023-03-03T13:58:31;42.67;;;15.60;;
59474;SDS011;45288;51.136;16.928;2023-03-03T14:01:07;49.87;;;17.53;;
59474;SDS011;45288;51.136;16.928;2023-03-03T14:06:18;44.08;;;17.10;;
59474;SDS011;45288;51.136;16.928;2023-03-03T14:19:02;48.97;;;19.90;;
59474;SDS011;45288;51.136;16.928;2023-03-03T14:21:44;60.83;;;23.98;;
59474;SDS011;45288;51.136;16.928;2023-03-03T14:24:20;63.33;;;23.52;;
59474;SDS011;45288;51.136;16.928;2023-03-03T14:29:19;55.53;;;20.73;;
59474;SDS011;45288;51.136;16.928;2023-03-03T14:31:46;41.38;;;15.77;;
59474;SDS011;45288;51.136;16.928;2023-03-03T14:36:51;45.00;;;18.08;;
59474;SDS011;45288;51.136;16.928;2023-03-03T14:39:32;42.20;;;17.13;;
59474;SDS011;45288;51.136;16.928;2023-03-03T14:41:58;52.83;;;20.80;;
59474;SDS011;45288;51.136;16.928;2023-03-03T14:44:26;56.37;;;21.73;;
59474;SDS011;45288;51.136;16.928;2023-03-03T14:49:31;36.90;;;14.73;;
59474;SDS011;45288;51.136;16.928;2023-03-03T14:54:42;48.38;;;18.20;;
59474;SDS011;45288;51.136;16.928;2023-03-03T14:59:59;46.80;;;18.45;;
59474;SDS011;45288;51.136;16.928;2023-03-03T15:02:34;47.38;;;16.85;;
59474;SDS011;45288;51.136;16.928;2023-03-03T15:05:42;57.63;;;19.88;;
59474;SDS011;45288;51.136;16.928;2023-03-03T15:07:52;51.70;;;19.08;;
59474;SDS011;45288;51.136;16.928;2023-03-03T15:12:56;48.20;;;18.45;;
59474;SDS011;45288;51.136;16.928;2023-03-03T15:15:25;48.40;;;18.42;;
59474;SDS011;45288;51.136;16.928;2023-03-03T15:25:21;54.90;;;21.97;;
59474;SDS011;45288;51.136;16.928;2023-03-03T15:27:49;56.47;;;19.80;;
59474;SDS011;45288;51.136;16.928;2023-03-03T15:30:28;53.22;;;19.85;;
59474;SDS011;45288;51.136;16.928;2023-03-03T15:33:04;55.55;;;20.27;;
59474;SDS011;45288;51.136;16.928;2023-03-03T15:35:46;54.40;;;20.95;;
59474;SDS011;45288;51.136;16.928;2023-03-03T15:38:24;50.25;;;19.52;;
59474;SDS011;45288;51.136;16.928;2023-03-03T15:41:07;53.83;;;19.53;;
59474;SDS011;45288;51.136;16.928;2023-03-03T15:43:40;58.33;;;21.30;;
59474;SDS011;45288;51.136;16.928;2023-03-03T15:51:19;43.03;;;18.65;;
59474;SDS011;45288;51.136;16.928;2023-03-03T15:56:29;46.28;;;20.58;;
59474;SDS011;45288;51.136;16.928;2023-03-03T16:01:39;47.58;;;17.95;;
59474;SDS011;45288;51.136;16.928;2023-03-03T16:04:10;44.60;;;18.45;;
59474;SDS011;45288;51.136;16.928;2023-03-03T16:06:44;54.22;;;20.40;;
59474;SDS011;45288;51.136;16.928;2023-03-03T16:16:34;47.90;;;19.25;;
59474;SDS011;45288;51.136;16.928;2023-03-03T16:19:10;56.13;;;21.60;;
59474;SDS011;45288;51.136;16.928;2023-03-03T16:24:38;53.07;;;22.13;;
59474;SDS011;45288;51.136;16.928;2023-03-03T16:39:54;51.38;;;22.33;;
59474;SDS011;45288;51.136;16.928;2023-03-03T16:42:27;42.03;;;20.02;;
59474;SDS011;45288;51.136;16.928;2023-03-03T16:52:37;50.63;;;20.65;;
59474;SDS011;45288;51.136;16.928;2023-03-03T16:55:13;57.50;;;23.20;;
59474;SDS011;45288;51.136;16.928;2023-03-03T16:57:52;45.60;;;19.90;;
59474;SDS011;45288;51.136;16.928;2023-03-03T17:24:08;32.15;;;13.77;;
59474;SDS011;45288;51.136;16.928;2023-03-03T17:26:41;42.35;;;16.45;;
59474;SDS011;45288;51.136;16.928;2023-03-03T17:41:57;38.15;;;18.63;;
59474;SDS011;45288;51.136;16.928;2023-03-03T17:44:43;39.72;;;18.77;;
59474;SDS011;45288;51.136;16.928;2023-03-03T17:47:12;38.17;;;17.80;;
59474;SDS011;45288;51.136;16.928;2023-03-03T18:07:50;54.90;;;19.75;;
59474;SDS011;45288;51.136;16.928;2023-03-03T18:13:05;47.47;;;19.88;;
59474;SDS011;45288;51.136;16.928;2023-03-03T18:18:27;51.60;;;18.35;;
59474;SDS011;45288;51.136;16.928;2023-03-03T18:25:54;56.88;;;20.27;;
59474;SDS011;45288;51.136;16.928;2023-03-03T18:28:22;60.80;;;20.83;;
59474;SDS011;45288;51.136;16.928;2023-03-03T18:31:14;67.15;;;21.63;;
59474;SDS011;45288;51.136;16.928;2023-03-03T18:33:41;57.40;;;20.85;;
59474;SDS011;45288;51.136;16.928;2023-03-03T18:36:11;62.95;;;21.25;;
59474;SDS011;45288;51.136;16.928;2023-03-03T18:38:38;56.90;;;18.00;;
59474;SDS011;45288;51.136;16.928;2023-03-03T18:41:09;62.92;;;21.30;;
59474;SDS011;45288;51.136;16.928;2023-03-03T18:46:09;55.40;;;18.75;;
59474;SDS011;45288;51.136;16.928;2023-03-03T18:51:10;54.80;;;17.57;;
59474;SDS011;45288;51.136;16.928;2023-03-03T18:53:36;62.83;;;21.70;;
59474;SDS011;45288;51.136;16.928;2023-03-03T18:56:03;68.70;;;22.38;;
59474;SDS011;45288;51.136;16.928;2023-03-03T18:58:34;64.27;;;22.47;;
59474;SDS011;45288;51.136;16.928;2023-03-03T19:06:00;60.42;;;22.15;;
59474;SDS011;45288;51.136;16.928;2023-03-03T19:08:28;58.17;;;22.00;;
59474;SDS011;45288;51.136;16.928;2023-03-03T19:10:55;63.10;;;23.40;;
59474;SDS011;45288;51.136;16.928;2023-03-03T19:16:02;60.70;;;20.88;;
59474;SDS011;45288;51.136;16.928;2023-03-03T19:21:18;73.35;;;24.73;;
59474;SDS011;45288;51.136;16.928;2023-03-03T19:28:54;74.50;;;25.08;;
59474;SDS011;45288;51.136;16.928;2023-03-03T19:31:42;68.70;;;24.08;;
59474;SDS011;45288;51.136;16.928;2023-03-03T19:36:48;73.83;;;26.77;;
59474;SDS011;45288;51.136;16.928;2023-03-03T19:44:41;79.75;;;29.90;;
59474;SDS011;45288;51.136;16.928;2023-03-03T19:47:27;80.78;;;30.58;;
59474;SDS011;45288;51.136;16.928;2023-03-03T19:57:25;77.47;;;28.50;;
59474;SDS011;45288;51.136;16.928;2023-03-03T20:00:19;87.10;;;31.17;;
59474;SDS011;45288;51.136;16.928;2023-03-03T20:07:54;71.97;;;26.27;;
59474;SDS011;45288;51.136;16.928;2023-03-03T20:10:27;73.33;;;27.47;;
59474;SDS011;45288;51.136;16.928;2023-03-03T20:15:31;84.28;;;30.88;;
59474;SDS011;45288;51.136;16.928;2023-03-03T20:30:52;64.60;;;25.67;;
59474;SDS011;45288;51.136;16.928;2023-03-03T20:35:58;177.48;;;155.82;;
59474;SDS011;45288;51.136;16.928;2023-03-03T20:46:25;68.78;;;27.75;;